Svyataya Anna — UUCV — position and weather

sailwx.info

Track history (hours):
 
Tides and Currents Weather Stations Pressure Air Temp Water Temp Dewpoint Dewpoint Depression Visibility Wind Speed Wind Dir Waves Ship Positions

Svyataya Anna

Last reported at 2018-Mar-15 05:34 UTC. Time now 2018-Apr-22 10:33 UTC.
Position N 46°34' E 031°57'.
Warning: this ship's position is 38 days out of date.

Length 93 m; draft 2.2 m.

Type: Cargo ship. MMSI: 272068800.

Date/timePositionNaut miles runAvg speedWind from/ knotsBaromVisibWave heightAir tempDewpointWater temp
2018-Mar-15 05:34N 46°34' E 031°57'0 5.0
2018-Mar-15 05:30N 46°34' E 031°56'2 5.1
2018-Mar-15 05:01N 46°34' E 031°53'4 4.9
2018-Mar-15 04:06N 46°36' E 031°47'1 4.9
2018-Mar-15 03:56N 46°36' E 031°45'27 5.1
2018-Mar-14 22:34N 46°26' E 031°09'0 6.0
2018-Mar-14 22:30N 46°25' E 031°08'7 6.0
2018-Mar-14 21:20N 46°23' E 030°59'2 5.8
2018-Mar-14 21:00N 46°22' E 030°56'3 5.9
2018-Mar-14 20:30N 46°21' E 030°52'3 5.5
2018-Mar-14 19:58N 46°21' E 030°48'5 4.8
2018-Mar-14 18:59N 46°17' E 030°43'6 5.5
2018-Mar-14 17:51N 46°12' E 030°39'  
2018-Mar-07 08:40N 44°28' E 022°09'1 7.0
2018-Mar-07 08:30N 44°29' E 022°07'3 5.3
2018-Mar-07 08:00N 44°30' E 022°05'  
Track history (hours):
 
Tides and Currents Weather Stations Pressure Air Temp Water Temp Dewpoint Dewpoint Depression Visibility Wind Speed Wind Dir Waves Ship Positions

Svyataya Anna

Last reported at 2018-Mar-15 05:34 UTC. Time now 2018-Apr-22 10:33 UTC.
Position N 46°34' E 031°57'.
Warning: this ship's position is 38 days out of date.

Length 93 m; draft 2.2 m.

Type: Cargo ship. MMSI: 272068800.

Date/timePositionNaut miles runAvg speedWind from/ knotsBaromVisibWave heightAir tempDewpointWater temp
2018-Mar-15 05:34N 46°34' E 031°57'0 5.0
2018-Mar-15 05:30N 46°34' E 031°56'2 5.1
2018-Mar-15 05:01N 46°34' E 031°53'4 4.9
2018-Mar-15 04:06N 46°36' E 031°47'1 4.9
2018-Mar-15 03:56N 46°36' E 031°45'27 5.1
2018-Mar-14 22:34N 46°26' E 031°09'0 6.0
2018-Mar-14 22:30N 46°25' E 031°08'7 6.0
2018-Mar-14 21:20N 46°23' E 030°59'2 5.8
2018-Mar-14 21:00N 46°22' E 030°56'3 5.9
2018-Mar-14 20:30N 46°21' E 030°52'3 5.5
2018-Mar-14 19:58N 46°21' E 030°48'5 4.8
2018-Mar-14 18:59N 46°17' E 030°43'6 5.5
2018-Mar-14 17:51N 46°12' E 030°39'  
2018-Mar-07 08:40N 44°28' E 022°09'1 7.0
2018-Mar-07 08:30N 44°29' E 022°07'3 5.3
2018-Mar-07 08:00N 44°30' E 022°05'  

Dump ship's entire track history